Terminal Aerodrome Forecast
Issued by NWS

Home | Current Version | Previous Version | Text Only | Print | Product List | Glossary On
Versions: 1 2 3 4 5 6 7 8 9 10 11 12 13 14 15 16 17 18 19 20
000
FTUS42 KJAX 071725
TAFCRG
TAF
KCRG 071725Z 0718/0818 VRB05KT P6SM SCT020 SCT250
     FM080200 00000KT 6SM BR SCT020 SCT250
     FM080700 00000KT 4SM BR SCT005 BKN020
     FM081300 31006KT 6SM BR SCT005 BKN020=

USA.gov is the U.S. government's official web portal to all federal, state and local government web resources and services.